sensor_id;sensor_type;location;lat;lon;timestamp;P1;durP1;ratioP1;P2;durP2;ratioP2
27560;SDS011;15003;47.476;11.990;2022-07-22T00:01:20;8.90;;;6.63;;
27560;SDS011;15003;47.476;11.990;2022-07-22T00:03:46;9.50;;;7.80;;
27560;SDS011;15003;47.476;11.990;2022-07-22T00:06:12;10.52;;;7.80;;
27560;SDS011;15003;47.476;11.990;2022-07-22T00:08:37;10.43;;;7.47;;
27560;SDS011;15003;47.476;11.990;2022-07-22T00:11:03;10.88;;;7.95;;
27560;SDS011;15003;47.476;11.990;2022-07-22T00:13:30;10.50;;;7.95;;
27560;SDS011;15003;47.476;11.990;2022-07-22T00:15:56;11.25;;;7.90;;
27560;SDS011;15003;47.476;11.990;2022-07-22T00:18:23;10.63;;;7.78;;
27560;SDS011;15003;47.476;11.990;2022-07-22T00:20:49;10.70;;;8.35;;
27560;SDS011;15003;47.476;11.990;2022-07-22T00:23:14;10.10;;;8.02;;
27560;SDS011;15003;47.476;11.990;2022-07-22T00:25:40;11.98;;;8.90;;
27560;SDS011;15003;47.476;11.990;2022-07-22T00:28:06;12.25;;;9.32;;
27560;SDS011;15003;47.476;11.990;2022-07-22T00:30:32;11.23;;;9.07;;
27560;SDS011;15003;47.476;11.990;2022-07-22T00:32:58;11.93;;;8.57;;
27560;SDS011;15003;47.476;11.990;2022-07-22T00:35:24;10.48;;;8.35;;
27560;SDS011;15003;47.476;11.990;2022-07-22T00:37:50;10.57;;;8.68;;
27560;SDS011;15003;47.476;11.990;2022-07-22T00:40:16;16.77;;;9.50;;
27560;SDS011;15003;47.476;11.990;2022-07-22T00:42:42;11.80;;;8.93;;
27560;SDS011;15003;47.476;11.990;2022-07-22T00:45:08;12.55;;;9.18;;
27560;SDS011;15003;47.476;11.990;2022-07-22T00:47:34;10.45;;;8.68;;
27560;SDS011;15003;47.476;11.990;2022-07-22T00:50:00;11.05;;;8.48;;
27560;SDS011;15003;47.476;11.990;2022-07-22T00:52:26;12.40;;;9.18;;
27560;SDS011;15003;47.476;11.990;2022-07-22T00:54:52;10.90;;;9.23;;
27560;SDS011;15003;47.476;11.990;2022-07-22T00:57:20;10.95;;;8.63;;
27560;SDS011;15003;47.476;11.990;2022-07-22T00:59:45;10.32;;;8.13;;
27560;SDS011;15003;47.476;11.990;2022-07-22T01:02:11;11.02;;;8.25;;
27560;SDS011;15003;47.476;11.990;2022-07-22T01:04:37;11.40;;;8.38;;
27560;SDS011;15003;47.476;11.990;2022-07-22T01:07:04;10.38;;;8.43;;
27560;SDS011;15003;47.476;11.990;2022-07-22T01:09:30;11.32;;;8.52;;
27560;SDS011;15003;47.476;11.990;2022-07-22T01:11:56;10.85;;;8.02;;
27560;SDS011;15003;47.476;11.990;2022-07-22T01:14:22;8.95;;;7.72;;
27560;SDS011;15003;47.476;11.990;2022-07-22T01:16:47;10.93;;;8.00;;
27560;SDS011;15003;47.476;11.990;2022-07-22T01:19:13;9.35;;;7.68;;
27560;SDS011;15003;47.476;11.990;2022-07-22T01:21:39;10.60;;;8.43;;
27560;SDS011;15003;47.476;11.990;2022-07-22T01:24:05;10.23;;;8.20;;
27560;SDS011;15003;47.476;11.990;2022-07-22T01:26:31;11.60;;;8.35;;
27560;SDS011;15003;47.476;11.990;2022-07-22T01:28:57;12.52;;;7.72;;
27560;SDS011;15003;47.476;11.990;2022-07-22T01:31:23;11.98;;;8.00;;
27560;SDS011;15003;47.476;11.990;2022-07-22T01:33:49;10.25;;;8.13;;
27560;SDS011;15003;47.476;11.990;2022-07-22T01:36:14;9.10;;;7.65;;
27560;SDS011;15003;47.476;11.990;2022-07-22T01:38:40;10.95;;;8.77;;
27560;SDS011;15003;47.476;11.990;2022-07-22T01:41:06;12.38;;;8.55;;
27560;SDS011;15003;47.476;11.990;2022-07-22T01:43:32;11.57;;;7.80;;
27560;SDS011;15003;47.476;11.990;2022-07-22T01:45:58;10.00;;;7.97;;
27560;SDS011;15003;47.476;11.990;2022-07-22T01:48:24;11.90;;;7.97;;
27560;SDS011;15003;47.476;11.990;2022-07-22T01:50:50;9.90;;;8.00;;
27560;SDS011;15003;47.476;11.990;2022-07-22T01:53:16;11.75;;;7.95;;
27560;SDS011;15003;47.476;11.990;2022-07-22T01:55:42;12.00;;;8.32;;
27560;SDS011;15003;47.476;11.990;2022-07-22T01:58:07;9.73;;;7.93;;
27560;SDS011;15003;47.476;11.990;2022-07-22T02:00:34;8.55;;;7.43;;
27560;SDS011;15003;47.476;11.990;2022-07-22T02:03:00;10.93;;;7.88;;
27560;SDS011;15003;47.476;11.990;2022-07-22T02:05:27;10.80;;;7.65;;
27560;SDS011;15003;47.476;11.990;2022-07-22T02:07:56;9.35;;;7.65;;
27560;SDS011;15003;47.476;11.990;2022-07-22T02:10:25;10.05;;;7.88;;
27560;SDS011;15003;47.476;11.990;2022-07-22T02:12:51;9.40;;;7.88;;
27560;SDS011;15003;47.476;11.990;2022-07-22T02:15:17;9.65;;;7.43;;
27560;SDS011;15003;47.476;11.990;2022-07-22T02:17:42;12.10;;;7.90;;
27560;SDS011;15003;47.476;11.990;2022-07-22T02:20:08;10.32;;;7.88;;
27560;SDS011;15003;47.476;11.990;2022-07-22T02:22:34;10.02;;;8.07;;
27560;SDS011;15003;47.476;11.990;2022-07-22T02:25:00;8.63;;;7.32;;
27560;SDS011;15003;47.476;11.990;2022-07-22T02:27:26;10.43;;;7.50;;
27560;SDS011;15003;47.476;11.990;2022-07-22T02:29:52;12.63;;;8.20;;
27560;SDS011;15003;47.476;11.990;2022-07-22T02:32:20;8.75;;;7.53;;
27560;SDS011;15003;47.476;11.990;2022-07-22T02:34:46;10.40;;;8.05;;
27560;SDS011;15003;47.476;11.990;2022-07-22T02:37:12;9.85;;;7.80;;
27560;SDS011;15003;47.476;11.990;2022-07-22T02:39:38;9.95;;;7.60;;
27560;SDS011;15003;47.476;11.990;2022-07-22T02:42:03;9.95;;;7.32;;
27560;SDS011;15003;47.476;11.990;2022-07-22T02:44:29;11.13;;;8.23;;
27560;SDS011;15003;47.476;11.990;2022-07-22T02:46:55;13.02;;;8.82;;
27560;SDS011;15003;47.476;11.990;2022-07-22T02:49:21;10.23;;;7.88;;
27560;SDS011;15003;47.476;11.990;2022-07-22T02:51:46;9.15;;;7.82;;
27560;SDS011;15003;47.476;11.990;2022-07-22T02:54:12;10.75;;;7.47;;
27560;SDS011;15003;47.476;11.990;2022-07-22T02:56:38;10.77;;;7.82;;
27560;SDS011;15003;47.476;11.990;2022-07-22T02:59:04;9.75;;;7.20;;
27560;SDS011;15003;47.476;11.990;2022-07-22T03:01:29;10.23;;;7.60;;
27560;SDS011;15003;47.476;11.990;2022-07-22T03:03:55;8.85;;;7.32;;
27560;SDS011;15003;47.476;11.990;2022-07-22T03:06:21;11.70;;;7.78;;
27560;SDS011;15003;47.476;11.990;2022-07-22T03:08:47;8.95;;;7.53;;
27560;SDS011;15003;47.476;11.990;2022-07-22T03:11:13;9.88;;;7.85;;
27560;SDS011;15003;47.476;11.990;2022-07-22T03:13:38;11.88;;;7.93;;
27560;SDS011;15003;47.476;11.990;2022-07-22T03:16:04;11.15;;;8.50;;
27560;SDS011;15003;47.476;11.990;2022-07-22T03:18:30;11.20;;;8.45;;
27560;SDS011;15003;47.476;11.990;2022-07-22T03:20:55;9.48;;;8.38;;
27560;SDS011;15003;47.476;11.990;2022-07-22T03:23:22;10.75;;;8.48;;
27560;SDS011;15003;47.476;11.990;2022-07-22T03:25:48;11.75;;;8.65;;
27560;SDS011;15003;47.476;11.990;2022-07-22T03:28:13;10.85;;;8.63;;
27560;SDS011;15003;47.476;11.990;2022-07-22T03:30:39;13.05;;;9.07;;
27560;SDS011;15003;47.476;11.990;2022-07-22T03:33:05;11.50;;;8.45;;
27560;SDS011;15003;47.476;11.990;2022-07-22T03:35:31;11.05;;;8.70;;
27560;SDS011;15003;47.476;11.990;2022-07-22T03:37:56;10.85;;;8.68;;
27560;SDS011;15003;47.476;11.990;2022-07-22T03:40:22;12.25;;;9.02;;
27560;SDS011;15003;47.476;11.990;2022-07-22T03:42:48;11.23;;;9.45;;
27560;SDS011;15003;47.476;11.990;2022-07-22T03:45:14;11.32;;;8.30;;
27560;SDS011;15003;47.476;11.990;2022-07-22T03:47:40;11.20;;;8.93;;
27560;SDS011;15003;47.476;11.990;2022-07-22T03:50:06;12.05;;;9.52;;
27560;SDS011;15003;47.476;11.990;2022-07-22T03:52:32;10.77;;;8.82;;
27560;SDS011;15003;47.476;11.990;2022-07-22T03:54:58;12.52;;;9.57;;
27560;SDS011;15003;47.476;11.990;2022-07-22T03:57:24;12.75;;;9.07;;
27560;SDS011;15003;47.476;11.990;2022-07-22T03:59:49;12.18;;;8.88;;
27560;SDS011;15003;47.476;11.990;2022-07-22T04:02:15;11.05;;;9.10;;
27560;SDS011;15003;47.476;11.990;2022-07-22T04:04:41;12.13;;;8.88;;
27560;SDS011;15003;47.476;11.990;2022-07-22T04:07:06;13.75;;;9.52;;
27560;SDS011;15003;47.476;11.990;2022-07-22T04:09:32;12.60;;;9.75;;
27560;SDS011;15003;47.476;11.990;2022-07-22T04:11:58;12.93;;;9.88;;
27560;SDS011;15003;47.476;11.990;2022-07-22T04:14:24;11.80;;;10.13;;
27560;SDS011;15003;47.476;11.990;2022-07-22T04:16:49;12.38;;;9.63;;
27560;SDS011;15003;47.476;11.990;2022-07-22T04:19:15;15.30;;;9.95;;
27560;SDS011;15003;47.476;11.990;2022-07-22T04:21:41;11.73;;;9.27;;
27560;SDS011;15003;47.476;11.990;2022-07-22T04:24:07;13.10;;;9.57;;
27560;SDS011;15003;47.476;11.990;2022-07-22T04:26:33;11.98;;;9.73;;
27560;SDS011;15003;47.476;11.990;2022-07-22T04:28:59;11.25;;;9.60;;
27560;SDS011;15003;47.476;11.990;2022-07-22T04:31:25;10.85;;;9.15;;
27560;SDS011;15003;47.476;11.990;2022-07-22T04:33:50;11.10;;;9.07;;
27560;SDS011;15003;47.476;11.990;2022-07-22T04:36:16;12.38;;;8.68;;
27560;SDS011;15003;47.476;11.990;2022-07-22T04:38:42;12.13;;;9.05;;
27560;SDS011;15003;47.476;11.990;2022-07-22T04:41:08;14.68;;;9.98;;
27560;SDS011;15003;47.476;11.990;2022-07-22T04:43:33;14.18;;;9.75;;
27560;SDS011;15003;47.476;11.990;2022-07-22T04:45:59;12.80;;;9.73;;
27560;SDS011;15003;47.476;11.990;2022-07-22T04:48:25;11.40;;;9.45;;
27560;SDS011;15003;47.476;11.990;2022-07-22T04:50:51;12.00;;;8.88;;
27560;SDS011;15003;47.476;11.990;2022-07-22T04:53:16;11.82;;;9.05;;
27560;SDS011;15003;47.476;11.990;2022-07-22T04:55:42;11.48;;;9.45;;
27560;SDS011;15003;47.476;11.990;2022-07-22T04:58:08;11.98;;;9.55;;
27560;SDS011;15003;47.476;11.990;2022-07-22T05:00:34;13.05;;;10.50;;
27560;SDS011;15003;47.476;11.990;2022-07-22T05:02:59;13.23;;;9.48;;
27560;SDS011;15003;47.476;11.990;2022-07-22T05:05:25;13.02;;;10.13;;
27560;SDS011;15003;47.476;11.990;2022-07-22T05:07:51;12.68;;;10.13;;
27560;SDS011;15003;47.476;11.990;2022-07-22T05:10:17;14.40;;;10.30;;
27560;SDS011;15003;47.476;11.990;2022-07-22T05:12:42;12.65;;;9.80;;
27560;SDS011;15003;47.476;11.990;2022-07-22T05:15:08;12.18;;;9.65;;
27560;SDS011;15003;47.476;11.990;2022-07-22T05:17:34;12.20;;;9.75;;
27560;SDS011;15003;47.476;11.990;2022-07-22T05:20:03;13.18;;;10.32;;
27560;SDS011;15003;47.476;11.990;2022-07-22T05:22:30;14.07;;;10.07;;
27560;SDS011;15003;47.476;11.990;2022-07-22T05:24:56;13.70;;;9.93;;
27560;SDS011;15003;47.476;11.990;2022-07-22T05:27:22;12.50;;;9.95;;
27560;SDS011;15003;47.476;11.990;2022-07-22T05:29:48;10.98;;;9.20;;
27560;SDS011;15003;47.476;11.990;2022-07-22T05:32:14;13.10;;;10.05;;
27560;SDS011;15003;47.476;11.990;2022-07-22T05:34:40;13.98;;;10.65;;
27560;SDS011;15003;47.476;11.990;2022-07-22T05:37:06;12.95;;;10.65;;
27560;SDS011;15003;47.476;11.990;2022-07-22T05:39:32;12.70;;;10.38;;
27560;SDS011;15003;47.476;11.990;2022-07-22T05:41:58;13.38;;;10.55;;
27560;SDS011;15003;47.476;11.990;2022-07-22T05:44:23;13.63;;;10.43;;
27560;SDS011;15003;47.476;11.990;2022-07-22T05:46:49;14.23;;;10.57;;
27560;SDS011;15003;47.476;11.990;2022-07-22T05:49:15;15.98;;;11.15;;
27560;SDS011;15003;47.476;11.990;2022-07-22T05:51:41;13.13;;;11.07;;
27560;SDS011;15003;47.476;11.990;2022-07-22T05:54:07;14.88;;;11.57;;
27560;SDS011;15003;47.476;11.990;2022-07-22T05:56:33;13.30;;;10.88;;
27560;SDS011;15003;47.476;11.990;2022-07-22T05:58:58;15.10;;;11.75;;
27560;SDS011;15003;47.476;11.990;2022-07-22T06:01:24;13.95;;;11.45;;
27560;SDS011;15003;47.476;11.990;2022-07-22T06:03:51;13.77;;;10.85;;
27560;SDS011;15003;47.476;11.990;2022-07-22T06:06:16;14.00;;;11.68;;
27560;SDS011;15003;47.476;11.990;2022-07-22T06:08:42;13.98;;;11.02;;
27560;SDS011;15003;47.476;11.990;2022-07-22T06:11:08;14.73;;;11.55;;
27560;SDS011;15003;47.476;11.990;2022-07-22T06:13:34;14.20;;;11.32;;
27560;SDS011;15003;47.476;11.990;2022-07-22T06:16:00;15.68;;;11.60;;
27560;SDS011;15003;47.476;11.990;2022-07-22T06:18:26;13.95;;;11.55;;
27560;SDS011;15003;47.476;11.990;2022-07-22T06:20:53;16.05;;;11.80;;
27560;SDS011;15003;47.476;11.990;2022-07-22T06:23:19;15.88;;;11.85;;
27560;SDS011;15003;47.476;11.990;2022-07-22T06:25:44;16.63;;;12.55;;
27560;SDS011;15003;47.476;11.990;2022-07-22T06:28:11;14.75;;;12.27;;
27560;SDS011;15003;47.476;11.990;2022-07-22T06:30:37;16.58;;;12.48;;
27560;SDS011;15003;47.476;11.990;2022-07-22T06:33:03;15.13;;;11.48;;
27560;SDS011;15003;47.476;11.990;2022-07-22T06:35:29;16.25;;;12.80;;
27560;SDS011;15003;47.476;11.990;2022-07-22T06:37:55;14.43;;;12.25;;
27560;SDS011;15003;47.476;11.990;2022-07-22T06:40:21;15.20;;;12.18;;
27560;SDS011;15003;47.476;11.990;2022-07-22T06:42:47;13.23;;;10.80;;
27560;SDS011;15003;47.476;11.990;2022-07-22T06:45:12;14.55;;;11.95;;
27560;SDS011;15003;47.476;11.990;2022-07-22T06:47:38;14.60;;;12.27;;
27560;SDS011;15003;47.476;11.990;2022-07-22T06:50:05;17.10;;;13.02;;
27560;SDS011;15003;47.476;11.990;2022-07-22T06:52:33;16.05;;;13.35;;
27560;SDS011;15003;47.476;11.990;2022-07-22T06:54:58;17.45;;;12.93;;
27560;SDS011;15003;47.476;11.990;2022-07-22T06:57:24;16.17;;;13.63;;
27560;SDS011;15003;47.476;11.990;2022-07-22T06:59:50;17.27;;;13.40;;
27560;SDS011;15003;47.476;11.990;2022-07-22T07:02:16;17.40;;;13.68;;
27560;SDS011;15003;47.476;11.990;2022-07-22T07:04:42;17.50;;;13.85;;
27560;SDS011;15003;47.476;11.990;2022-07-22T07:07:08;18.45;;;13.10;;
27560;SDS011;15003;47.476;11.990;2022-07-22T07:09:34;16.05;;;13.75;;
27560;SDS011;15003;47.476;11.990;2022-07-22T07:11:59;16.60;;;13.75;;
27560;SDS011;15003;47.476;11.990;2022-07-22T07:14:26;14.68;;;12.20;;
27560;SDS011;15003;47.476;11.990;2022-07-22T07:16:51;16.63;;;13.55;;
27560;SDS011;15003;47.476;11.990;2022-07-22T07:19:17;17.70;;;12.85;;
27560;SDS011;15003;47.476;11.990;2022-07-22T07:21:43;17.23;;;12.85;;
27560;SDS011;15003;47.476;11.990;2022-07-22T07:24:08;15.63;;;13.18;;
27560;SDS011;15003;47.476;11.990;2022-07-22T07:26:34;15.43;;;13.32;;
27560;SDS011;15003;47.476;11.990;2022-07-22T07:29:00;16.67;;;12.93;;
27560;SDS011;15003;47.476;11.990;2022-07-22T07:31:26;15.07;;;12.75;;
27560;SDS011;15003;47.476;11.990;2022-07-22T07:33:52;16.58;;;13.13;;
27560;SDS011;15003;47.476;11.990;2022-07-22T07:36:24;15.35;;;13.25;;
27560;SDS011;15003;47.476;11.990;2022-07-22T07:38:50;16.75;;;12.60;;
27560;SDS011;15003;47.476;11.990;2022-07-22T07:41:16;16.90;;;14.35;;
27560;SDS011;15003;47.476;11.990;2022-07-22T07:43:42;15.40;;;13.38;;
27560;SDS011;15003;47.476;11.990;2022-07-22T07:46:08;14.90;;;13.25;;
27560;SDS011;15003;47.476;11.990;2022-07-22T07:48:35;16.70;;;13.18;;
27560;SDS011;15003;47.476;11.990;2022-07-22T07:51:00;16.30;;;13.30;;
27560;SDS011;15003;47.476;11.990;2022-07-22T07:53:26;14.60;;;12.18;;
27560;SDS011;15003;47.476;11.990;2022-07-22T07:55:52;15.05;;;12.32;;
27560;SDS011;15003;47.476;11.990;2022-07-22T07:58:18;16.58;;;13.18;;
27560;SDS011;15003;47.476;11.990;2022-07-22T08:00:44;16.23;;;13.18;;
27560;SDS011;15003;47.476;11.990;2022-07-22T08:03:10;14.27;;;12.32;;
27560;SDS011;15003;47.476;11.990;2022-07-22T08:05:37;13.13;;;10.88;;
27560;SDS011;15003;47.476;11.990;2022-07-22T08:08:03;16.85;;;13.35;;
27560;SDS011;15003;47.476;11.990;2022-07-22T08:13:32;13.52;;;10.80;;
27560;SDS011;15003;47.476;11.990;2022-07-22T08:15:58;13.43;;;11.15;;
27560;SDS011;15003;47.476;11.990;2022-07-22T08:18:24;12.50;;;11.13;;
27560;SDS011;15003;47.476;11.990;2022-07-22T08:20:51;14.88;;;12.38;;
27560;SDS011;15003;47.476;11.990;2022-07-22T08:23:17;12.90;;;11.38;;
27560;SDS011;15003;47.476;11.990;2022-07-22T08:25:43;11.55;;;10.30;;
27560;SDS011;15003;47.476;11.990;2022-07-22T08:28:09;11.95;;;9.73;;
27560;SDS011;15003;47.476;11.990;2022-07-22T08:30:34;10.82;;;9.68;;
27560;SDS011;15003;47.476;11.990;2022-07-22T08:33:00;11.52;;;10.18;;
27560;SDS011;15003;47.476;11.990;2022-07-22T08:35:26;12.20;;;10.73;;
27560;SDS011;15003;47.476;11.990;2022-07-22T08:37:52;12.00;;;9.93;;
27560;SDS011;15003;47.476;11.990;2022-07-22T08:40:18;11.75;;;10.20;;
27560;SDS011;15003;47.476;11.990;2022-07-22T08:42:45;12.73;;;9.68;;
27560;SDS011;15003;47.476;11.990;2022-07-22T08:45:13;12.43;;;10.55;;
27560;SDS011;15003;47.476;11.990;2022-07-22T08:47:39;10.98;;;9.45;;
27560;SDS011;15003;47.476;11.990;2022-07-22T08:50:05;10.25;;;9.10;;
27560;SDS011;15003;47.476;11.990;2022-07-22T08:52:32;11.30;;;9.73;;
27560;SDS011;15003;47.476;11.990;2022-07-22T08:54:57;10.40;;;9.02;;
27560;SDS011;15003;47.476;11.990;2022-07-22T08:57:23;12.75;;;9.15;;
27560;SDS011;15003;47.476;11.990;2022-07-22T08:59:53;9.30;;;8.40;;
27560;SDS011;15003;47.476;11.990;2022-07-22T09:02:21;10.00;;;8.93;;
27560;SDS011;15003;47.476;11.990;2022-07-22T09:07:24;10.30;;;9.23;;
27560;SDS011;15003;47.476;11.990;2022-07-22T09:09:56;9.85;;;8.45;;
27560;SDS011;15003;47.476;11.990;2022-07-22T09:12:25;9.75;;;8.75;;
27560;SDS011;15003;47.476;11.990;2022-07-22T09:14:52;9.73;;;8.73;;
27560;SDS011;15003;47.476;11.990;2022-07-22T09:17:25;10.60;;;9.02;;
27560;SDS011;15003;47.476;11.990;2022-07-22T09:19:59;9.00;;;8.10;;
27560;SDS011;15003;47.476;11.990;2022-07-22T09:22:32;8.93;;;7.97;;
27560;SDS011;15003;47.476;11.990;2022-07-22T09:27:49;10.05;;;8.32;;
27560;SDS011;15003;47.476;11.990;2022-07-22T09:30:23;9.63;;;8.35;;
27560;SDS011;15003;47.476;11.990;2022-07-22T09:32:51;11.65;;;9.65;;
27560;SDS011;15003;47.476;11.990;2022-07-22T09:35:19;11.52;;;9.90;;
27560;SDS011;15003;47.476;11.990;2022-07-22T09:40:25;9.88;;;8.52;;
27560;SDS011;15003;47.476;11.990;2022-07-22T09:43:02;10.88;;;8.68;;
27560;SDS011;15003;47.476;11.990;2022-07-22T09:45:47;10.07;;;8.35;;
27560;SDS011;15003;47.476;11.990;2022-07-22T09:48:22;12.95;;;10.18;;
27560;SDS011;15003;47.476;11.990;2022-07-22T09:50:48;11.10;;;9.82;;
27560;SDS011;15003;47.476;11.990;2022-07-22T09:53:16;11.23;;;9.43;;
27560;SDS011;15003;47.476;11.990;2022-07-22T09:55:44;12.82;;;8.57;;
27560;SDS011;15003;47.476;11.990;2022-07-22T09:58:10;10.00;;;9.00;;
27560;SDS011;15003;47.476;11.990;2022-07-22T10:00:37;9.50;;;8.45;;
27560;SDS011;15003;47.476;11.990;2022-07-22T10:03:05;9.10;;;8.20;;
27560;SDS011;15003;47.476;11.990;2022-07-22T10:05:36;9.40;;;8.18;;
27560;SDS011;15003;47.476;11.990;2022-07-22T10:08:05;8.95;;;8.05;;
27560;SDS011;15003;47.476;11.990;2022-07-22T10:10:32;11.15;;;8.88;;
27560;SDS011;15003;47.476;11.990;2022-07-22T10:13:00;10.00;;;8.23;;
27560;SDS011;15003;47.476;11.990;2022-07-22T10:15:29;8.35;;;7.55;;
27560;SDS011;15003;47.476;11.990;2022-07-22T10:17:58;8.55;;;7.75;;
27560;SDS011;15003;47.476;11.990;2022-07-22T10:20:28;7.85;;;7.05;;
27560;SDS011;15003;47.476;11.990;2022-07-22T10:22:56;8.43;;;7.45;;
27560;SDS011;15003;47.476;11.990;2022-07-22T10:25:27;8.30;;;7.40;;
27560;SDS011;15003;47.476;11.990;2022-07-22T10:28:37;7.95;;;6.72;;
27560;SDS011;15003;47.476;11.990;2022-07-22T10:31:18;7.68;;;6.97;;
27560;SDS011;15003;47.476;11.990;2022-07-22T10:33:44;7.13;;;6.43;;
27560;SDS011;15003;47.476;11.990;2022-07-22T10:36:14;7.32;;;6.63;;
27560;SDS011;15003;47.476;11.990;2022-07-22T10:39:07;7.45;;;6.68;;
27560;SDS011;15003;47.476;11.990;2022-07-22T10:41:39;8.13;;;7.32;;
27560;SDS011;15003;47.476;11.990;2022-07-22T10:44:10;8.98;;;7.80;;
27560;SDS011;15003;47.476;11.990;2022-07-22T10:46:55;11.90;;;7.88;;
27560;SDS011;15003;47.476;11.990;2022-07-22T10:49:22;8.95;;;8.05;;
27560;SDS011;15003;47.476;11.990;2022-07-22T10:52:23;8.25;;;7.45;;
27560;SDS011;15003;47.476;11.990;2022-07-22T10:57:46;10.05;;;8.32;;
27560;SDS011;15003;47.476;11.990;2022-07-22T11:00:12;9.18;;;8.27;;
27560;SDS011;15003;47.476;11.990;2022-07-22T11:02:38;9.45;;;8.15;;
27560;SDS011;15003;47.476;11.990;2022-07-22T11:05:05;8.93;;;8.02;;
27560;SDS011;15003;47.476;11.990;2022-07-22T11:07:31;8.75;;;7.72;;
27560;SDS011;15003;47.476;11.990;2022-07-22T11:10:10;8.43;;;7.53;;
27560;SDS011;15003;47.476;11.990;2022-07-22T11:12:42;8.85;;;7.95;;
27560;SDS011;15003;47.476;11.990;2022-07-22T11:15:10;8.60;;;7.80;;
27560;SDS011;15003;47.476;11.990;2022-07-22T11:17:36;8.13;;;7.10;;
27560;SDS011;15003;47.476;11.990;2022-07-22T11:20:10;9.02;;;8.13;;
27560;SDS011;15003;47.476;11.990;2022-07-22T11:22:38;10.18;;;7.80;;
27560;SDS011;15003;47.476;11.990;2022-07-22T11:25:05;9.27;;;7.45;;
27560;SDS011;15003;47.476;11.990;2022-07-22T11:27:34;9.18;;;8.13;;
27560;SDS011;15003;47.476;11.990;2022-07-22T11:30:00;7.90;;;7.07;;
27560;SDS011;15003;47.476;11.990;2022-07-22T11:32:26;8.00;;;7.25;;
27560;SDS011;15003;47.476;11.990;2022-07-22T11:34:52;8.93;;;8.02;;
27560;SDS011;15003;47.476;11.990;2022-07-22T11:37:22;8.65;;;7.85;;
27560;SDS011;15003;47.476;11.990;2022-07-22T11:39:50;8.13;;;7.00;;
27560;SDS011;15003;47.476;11.990;2022-07-22T11:42:17;7.95;;;7.15;;
27560;SDS011;15003;47.476;11.990;2022-07-22T11:44:43;7.45;;;6.75;;
27560;SDS011;15003;47.476;11.990;2022-07-22T11:47:09;7.32;;;6.63;;
27560;SDS011;15003;47.476;11.990;2022-07-22T11:49:36;10.10;;;7.38;;
27560;SDS011;15003;47.476;11.990;2022-07-22T11:52:05;8.48;;;7.68;;
27560;SDS011;15003;47.476;11.990;2022-07-22T11:54:33;7.85;;;7.05;;
27560;SDS011;15003;47.476;11.990;2022-07-22T11:56:59;7.90;;;7.10;;
27560;SDS011;15003;47.476;11.990;2022-07-22T11:59:26;7.63;;;6.82;;
27560;SDS011;15003;47.476;11.990;2022-07-22T12:01:52;7.45;;;6.70;;
27560;SDS011;15003;47.476;11.990;2022-07-22T12:04:25;7.75;;;7.05;;
27560;SDS011;15003;47.476;11.990;2022-07-22T12:06:52;8.75;;;7.85;;
27560;SDS011;15003;47.476;11.990;2022-07-22T12:11:49;8.93;;;8.02;;
27560;SDS011;15003;47.476;11.990;2022-07-22T12:14:22;8.88;;;7.97;;
27560;SDS011;15003;47.476;11.990;2022-07-22T12:17:14;11.40;;;8.20;;
27560;SDS011;15003;47.476;11.990;2022-07-22T12:19:40;9.15;;;8.05;;
27560;SDS011;15003;47.476;11.990;2022-07-22T12:22:09;8.40;;;7.57;;
27560;SDS011;15003;47.476;11.990;2022-07-22T12:24:38;9.70;;;8.02;;
27560;SDS011;15003;47.476;11.990;2022-07-22T12:27:11;8.45;;;7.53;;
27560;SDS011;15003;47.476;11.990;2022-07-22T12:32:06;8.40;;;7.65;;
27560;SDS011;15003;47.476;11.990;2022-07-22T12:34:38;8.05;;;7.25;;
27560;SDS011;15003;47.476;11.990;2022-07-22T12:40:19;8.20;;;7.43;;
27560;SDS011;15003;47.476;11.990;2022-07-22T12:42:47;9.20;;;8.30;;
27560;SDS011;15003;47.476;11.990;2022-07-22T12:45:26;8.50;;;7.65;;
27560;SDS011;15003;47.476;11.990;2022-07-22T12:47:55;8.45;;;7.53;;
27560;SDS011;15003;47.476;11.990;2022-07-22T12:50:27;9.38;;;8.20;;
27560;SDS011;15003;47.476;11.990;2022-07-22T12:53:19;8.20;;;7.40;;
27560;SDS011;15003;47.476;11.990;2022-07-22T12:55:46;8.98;;;8.07;;
27560;SDS011;15003;47.476;11.990;2022-07-22T12:58:20;8.75;;;7.85;;
27560;SDS011;15003;47.476;11.990;2022-07-22T13:00:49;8.88;;;7.97;;
27560;SDS011;15003;47.476;11.990;2022-07-22T13:03:19;9.95;;;8.15;;
27560;SDS011;15003;47.476;11.990;2022-07-22T13:05:49;8.45;;;7.65;;
27560;SDS011;15003;47.476;11.990;2022-07-22T13:08:17;8.10;;;7.40;;
27560;SDS011;15003;47.476;11.990;2022-07-22T13:10:43;9.18;;;8.27;;
27560;SDS011;15003;47.476;11.990;2022-07-22T13:13:09;8.55;;;7.72;;
27560;SDS011;15003;47.476;11.990;2022-07-22T13:15:34;10.00;;;7.63;;
27560;SDS011;15003;47.476;11.990;2022-07-22T13:18:01;9.32;;;8.43;;
27560;SDS011;15003;47.476;11.990;2022-07-22T13:20:27;9.18;;;7.43;;
27560;SDS011;15003;47.476;11.990;2022-07-22T13:22:53;9.02;;;7.95;;
27560;SDS011;15003;47.476;11.990;2022-07-22T13:25:18;8.65;;;7.85;;
27560;SDS011;15003;47.476;11.990;2022-07-22T13:27:44;10.85;;;7.93;;
27560;SDS011;15003;47.476;11.990;2022-07-22T13:30:10;9.27;;;8.27;;
27560;SDS011;15003;47.476;11.990;2022-07-22T13:32:36;8.85;;;8.05;;
27560;SDS011;15003;47.476;11.990;2022-07-22T13:35:02;8.75;;;7.95;;
27560;SDS011;15003;47.476;11.990;2022-07-22T13:37:29;8.85;;;8.05;;
27560;SDS011;15003;47.476;11.990;2022-07-22T13:39:54;8.13;;;7.35;;
27560;SDS011;15003;47.476;11.990;2022-07-22T13:42:20;8.45;;;7.65;;
27560;SDS011;15003;47.476;11.990;2022-07-22T13:44:46;8.85;;;8.05;;
27560;SDS011;15003;47.476;11.990;2022-07-22T13:47:13;8.45;;;7.68;;
27560;SDS011;15003;47.476;11.990;2022-07-22T13:49:39;9.35;;;8.45;;
27560;SDS011;15003;47.476;11.990;2022-07-22T13:52:06;9.75;;;8.77;;
27560;SDS011;15003;47.476;11.990;2022-07-22T13:54:32;8.68;;;7.78;;
27560;SDS011;15003;47.476;11.990;2022-07-22T13:56:58;8.18;;;7.45;;
27560;SDS011;15003;47.476;11.990;2022-07-22T13:59:25;9.35;;;8.40;;
27560;SDS011;15003;47.476;11.990;2022-07-22T14:01:51;9.25;;;8.35;;
27560;SDS011;15003;47.476;11.990;2022-07-22T14:04:17;8.43;;;7.55;;
27560;SDS011;15003;47.476;11.990;2022-07-22T14:06:43;8.95;;;8.05;;
27560;SDS011;15003;47.476;11.990;2022-07-22T14:09:09;9.27;;;8.40;;
27560;SDS011;15003;47.476;11.990;2022-07-22T14:11:34;10.50;;;8.32;;
27560;SDS011;15003;47.476;11.990;2022-07-22T14:14:00;9.02;;;8.13;;
27560;SDS011;15003;47.476;11.990;2022-07-22T14:16:26;9.85;;;8.70;;
27560;SDS011;15003;47.476;11.990;2022-07-22T14:18:52;8.85;;;7.88;;
27560;SDS011;15003;47.476;11.990;2022-07-22T14:21:18;9.05;;;8.15;;
27560;SDS011;15003;47.476;11.990;2022-07-22T14:23:43;8.77;;;8.00;;
27560;SDS011;15003;47.476;11.990;2022-07-22T14:26:09;10.02;;;9.02;;
27560;SDS011;15003;47.476;11.990;2022-07-22T14:28:35;8.93;;;8.02;;
27560;SDS011;15003;47.476;11.990;2022-07-22T14:31:01;9.73;;;7.95;;
27560;SDS011;15003;47.476;11.990;2022-07-22T14:33:26;8.98;;;8.07;;
27560;SDS011;15003;47.476;11.990;2022-07-22T14:35:52;9.80;;;8.75;;
27560;SDS011;15003;47.476;11.990;2022-07-22T14:38:18;9.02;;;8.10;;
27560;SDS011;15003;47.476;11.990;2022-07-22T14:40:44;8.98;;;8.18;;
27560;SDS011;15003;47.476;11.990;2022-07-22T14:43:10;9.93;;;8.93;;
27560;SDS011;15003;47.476;11.990;2022-07-22T14:45:36;9.55;;;8.65;;